sensor_id;sensor_type;location;lat;lon;timestamp;temperature;humidity
77582;DHT22;66726;52.388;9.986;2023-05-27T00:01:58;12.50;93.80
77582;DHT22;66726;52.388;9.986;2023-05-27T00:04:32;12.40;94.20
77582;DHT22;66726;52.388;9.986;2023-05-27T00:07:06;12.30;94.00
77582;DHT22;66726;52.388;9.986;2023-05-27T00:09:39;12.20;94.50
77582;DHT22;66726;52.388;9.986;2023-05-27T00:12:12;12.20;94.80
77582;DHT22;66726;52.388;9.986;2023-05-27T00:14:46;12.10;94.60
77582;DHT22;66726;52.388;9.986;2023-05-27T00:17:19;11.90;95.10
77582;DHT22;66726;52.388;9.986;2023-05-27T00:19:53;12.10;95.10
77582;DHT22;66726;52.388;9.986;2023-05-27T00:22:26;12.10;95.10
77582;DHT22;66726;52.388;9.986;2023-05-27T00:25:00;12.00;95.20
77582;DHT22;66726;52.388;9.986;2023-05-27T00:27:34;11.90;95.40
77582;DHT22;66726;52.388;9.986;2023-05-27T00:30:09;12.10;95.40
77582;DHT22;66726;52.388;9.986;2023-05-27T00:32:43;12.00;95.30
77582;DHT22;66726;52.388;9.986;2023-05-27T00:35:17;11.90;95.50
77582;DHT22;66726;52.388;9.986;2023-05-27T00:37:50;11.90;95.60
77582;DHT22;66726;52.388;9.986;2023-05-27T00:40:25;12.00;95.40
77582;DHT22;66726;52.388;9.986;2023-05-27T00:43:00;11.80;95.70
77582;DHT22;66726;52.388;9.986;2023-05-27T00:45:34;11.90;96.00
77582;DHT22;66726;52.388;9.986;2023-05-27T00:48:08;11.80;95.60
77582;DHT22;66726;52.388;9.986;2023-05-27T00:50:42;11.60;96.10
77582;DHT22;66726;52.388;9.986;2023-05-27T00:53:17;11.60;96.30
77582;DHT22;66726;52.388;9.986;2023-05-27T00:55:53;11.60;96.30
77582;DHT22;66726;52.388;9.986;2023-05-27T00:58:28;11.60;96.10
77582;DHT22;66726;52.388;9.986;2023-05-27T01:01:02;11.40;96.60
77582;DHT22;66726;52.388;9.986;2023-05-27T01:03:37;11.50;96.50
77582;DHT22;66726;52.388;9.986;2023-05-27T01:06:19;11.50;96.40
77582;DHT22;66726;52.388;9.986;2023-05-27T01:09:05;11.50;96.40
77582;DHT22;66726;52.388;9.986;2023-05-27T01:11:50;11.40;96.40
77582;DHT22;66726;52.388;9.986;2023-05-27T01:14:30;11.20;96.50
77582;DHT22;66726;52.388;9.986;2023-05-27T01:17:07;11.30;96.90
77582;DHT22;66726;52.388;9.986;2023-05-27T01:19:44;11.20;96.90
77582;DHT22;66726;52.388;9.986;2023-05-27T01:24:57;11.20;96.50
77582;DHT22;66726;52.388;9.986;2023-05-27T01:27:31;11.30;96.40
77582;DHT22;66726;52.388;9.986;2023-05-27T01:30:05;11.30;96.20
77582;DHT22;66726;52.388;9.986;2023-05-27T01:32:44;11.20;96.40
77582;DHT22;66726;52.388;9.986;2023-05-27T01:35:27;11.20;96.30
77582;DHT22;66726;52.388;9.986;2023-05-27T01:38:12;10.80;96.80
77582;DHT22;66726;52.388;9.986;2023-05-27T01:40:49;10.70;97.00
77582;DHT22;66726;52.388;9.986;2023-05-27T01:43:24;10.80;97.00
77582;DHT22;66726;52.388;9.986;2023-05-27T01:45:59;10.70;97.50
77582;DHT22;66726;52.388;9.986;2023-05-27T01:48:32;10.80;97.30
77582;DHT22;66726;52.388;9.986;2023-05-27T01:51:05;10.80;97.60
77582;DHT22;66726;52.388;9.986;2023-05-27T01:53:39;10.80;97.20
77582;DHT22;66726;52.388;9.986;2023-05-27T01:56:12;10.80;97.20
77582;DHT22;66726;52.388;9.986;2023-05-27T01:58:45;10.80;97.00
77582;DHT22;66726;52.388;9.986;2023-05-27T02:01:19;10.70;97.20
77582;DHT22;66726;52.388;9.986;2023-05-27T02:03:53;10.70;97.40
77582;DHT22;66726;52.388;9.986;2023-05-27T02:06:28;10.60;97.90
77582;DHT22;66726;52.388;9.986;2023-05-27T02:09:02;10.60;97.40
77582;DHT22;66726;52.388;9.986;2023-05-27T02:11:36;10.60;97.30
77582;DHT22;66726;52.388;9.986;2023-05-27T02:14:09;10.50;98.00
77582;DHT22;66726;52.388;9.986;2023-05-27T02:16:43;10.50;97.50
77582;DHT22;66726;52.388;9.986;2023-05-27T02:19:17;10.30;97.50
77582;DHT22;66726;52.388;9.986;2023-05-27T02:21:52;10.30;97.70
77582;DHT22;66726;52.388;9.986;2023-05-27T02:24:25;10.00;97.90
77582;DHT22;66726;52.388;9.986;2023-05-27T02:26:58;10.10;98.10
77582;DHT22;66726;52.388;9.986;2023-05-27T02:29:32;9.90;98.40
77582;DHT22;66726;52.388;9.986;2023-05-27T02:32:05;9.90;98.10
77582;DHT22;66726;52.388;9.986;2023-05-27T02:34:39;9.90;98.20
77582;DHT22;66726;52.388;9.986;2023-05-27T02:37:12;9.80;98.60
77582;DHT22;66726;52.388;9.986;2023-05-27T02:39:45;9.70;98.60
77582;DHT22;66726;52.388;9.986;2023-05-27T02:42:18;9.70;99.00
77582;DHT22;66726;52.388;9.986;2023-05-27T02:44:52;9.70;98.70
77582;DHT22;66726;52.388;9.986;2023-05-27T02:47:25;9.60;98.90
77582;DHT22;66726;52.388;9.986;2023-05-27T02:49:59;9.60;99.10
77582;DHT22;66726;52.388;9.986;2023-05-27T02:52:33;9.60;98.90
77582;DHT22;66726;52.388;9.986;2023-05-27T02:55:08;9.50;99.40
77582;DHT22;66726;52.388;9.986;2023-05-27T02:57:41;9.70;99.10
77582;DHT22;66726;52.388;9.986;2023-05-27T03:00:17;9.60;98.90
77582;DHT22;66726;52.388;9.986;2023-05-27T03:02:51;9.50;99.10
77582;DHT22;66726;52.388;9.986;2023-05-27T03:05:25;9.60;99.20
77582;DHT22;66726;52.388;9.986;2023-05-27T03:07:59;9.70;98.90
77582;DHT22;66726;52.388;9.986;2023-05-27T03:10:32;9.70;99.00
77582;DHT22;66726;52.388;9.986;2023-05-27T03:13:06;9.90;98.80
77582;DHT22;66726;52.388;9.986;2023-05-27T03:15:39;9.90;98.90
77582;DHT22;66726;52.388;9.986;2023-05-27T03:18:13;9.80;98.80
77582;DHT22;66726;52.388;9.986;2023-05-27T03:20:46;9.80;98.60
77582;DHT22;66726;52.388;9.986;2023-05-27T03:23:20;9.80;99.20
77582;DHT22;66726;52.388;9.986;2023-05-27T03:25:53;9.80;99.00
77582;DHT22;66726;52.388;9.986;2023-05-27T03:28:26;9.80;98.90
77582;DHT22;66726;52.388;9.986;2023-05-27T03:31:00;9.60;99.40
77582;DHT22;66726;52.388;9.986;2023-05-27T03:33:34;9.70;99.60
77582;DHT22;66726;52.388;9.986;2023-05-27T03:36:09;9.60;99.60
77582;DHT22;66726;52.388;9.986;2023-05-27T03:38:42;9.70;99.20
77582;DHT22;66726;52.388;9.986;2023-05-27T03:41:16;9.60;99.60
77582;DHT22;66726;52.388;9.986;2023-05-27T03:43:50;9.60;99.30
77582;DHT22;66726;52.388;9.986;2023-05-27T03:46:23;9.40;99.70
77582;DHT22;66726;52.388;9.986;2023-05-27T03:48:57;9.50;99.90
77582;DHT22;66726;52.388;9.986;2023-05-27T03:51:31;9.60;99.50
77582;DHT22;66726;52.388;9.986;2023-05-27T03:54:05;9.60;99.40
77582;DHT22;66726;52.388;9.986;2023-05-27T03:56:38;9.50;99.60
77582;DHT22;66726;52.388;9.986;2023-05-27T03:59:11;9.50;99.90
77582;DHT22;66726;52.388;9.986;2023-05-27T04:01:45;9.60;99.90
77582;DHT22;66726;52.388;9.986;2023-05-27T04:04:19;9.70;99.90
77582;DHT22;66726;52.388;9.986;2023-05-27T04:06:53;9.50;99.90
77582;DHT22;66726;52.388;9.986;2023-05-27T04:09:27;9.40;99.90
77582;DHT22;66726;52.388;9.986;2023-05-27T04:12:00;9.50;99.90
77582;DHT22;66726;52.388;9.986;2023-05-27T04:14:33;9.50;99.90
77582;DHT22;66726;52.388;9.986;2023-05-27T04:17:07;9.50;99.90
77582;DHT22;66726;52.388;9.986;2023-05-27T04:19:40;9.40;99.90
77582;DHT22;66726;52.388;9.986;2023-05-27T04:22:13;9.40;99.90
77582;DHT22;66726;52.388;9.986;2023-05-27T04:24:46;9.40;99.90
77582;DHT22;66726;52.388;9.986;2023-05-27T04:27:20;9.40;99.90
77582;DHT22;66726;52.388;9.986;2023-05-27T04:29:55;9.40;99.90
77582;DHT22;66726;52.388;9.986;2023-05-27T04:32:28;9.40;99.90
77582;DHT22;66726;52.388;9.986;2023-05-27T04:35:03;9.40;99.90
77582;DHT22;66726;52.388;9.986;2023-05-27T04:37:39;9.40;99.90
77582;DHT22;66726;52.388;9.986;2023-05-27T04:40:15;9.40;99.90
77582;DHT22;66726;52.388;9.986;2023-05-27T04:42:49;9.50;99.90
77582;DHT22;66726;52.388;9.986;2023-05-27T04:45:22;9.50;99.90
77582;DHT22;66726;52.388;9.986;2023-05-27T04:47:56;9.50;99.90
77582;DHT22;66726;52.388;9.986;2023-05-27T04:50:31;9.50;99.90
77582;DHT22;66726;52.388;9.986;2023-05-27T04:53:05;9.50;99.90
77582;DHT22;66726;52.388;9.986;2023-05-27T04:55:39;9.50;99.90
77582;DHT22;66726;52.388;9.986;2023-05-27T04:58:12;9.60;99.90
77582;DHT22;66726;52.388;9.986;2023-05-27T05:00:45;9.60;99.90
77582;DHT22;66726;52.388;9.986;2023-05-27T05:03:23;9.50;99.90
77582;DHT22;66726;52.388;9.986;2023-05-27T05:06:08;9.60;99.90
77582;DHT22;66726;52.388;9.986;2023-05-27T05:08:42;9.50;99.90
77582;DHT22;66726;52.388;9.986;2023-05-27T05:11:15;9.60;99.90
77582;DHT22;66726;52.388;9.986;2023-05-27T05:13:48;9.60;99.90
77582;DHT22;66726;52.388;9.986;2023-05-27T05:16:22;9.60;99.90
77582;DHT22;66726;52.388;9.986;2023-05-27T05:18:55;9.70;99.90
77582;DHT22;66726;52.388;9.986;2023-05-27T05:21:29;9.60;99.90
77582;DHT22;66726;52.388;9.986;2023-05-27T05:24:02;9.60;99.90
77582;DHT22;66726;52.388;9.986;2023-05-27T05:26:36;9.50;99.90
77582;DHT22;66726;52.388;9.986;2023-05-27T05:29:09;9.60;99.90
77582;DHT22;66726;52.388;9.986;2023-05-27T05:31:42;9.60;99.90
77582;DHT22;66726;52.388;9.986;2023-05-27T05:34:16;9.50;99.90
77582;DHT22;66726;52.388;9.986;2023-05-27T05:36:49;9.60;99.90
77582;DHT22;66726;52.388;9.986;2023-05-27T05:39:23;9.50;99.90
77582;DHT22;66726;52.388;9.986;2023-05-27T05:41:56;9.60;99.90
77582;DHT22;66726;52.388;9.986;2023-05-27T05:44:30;9.60;99.90
77582;DHT22;66726;52.388;9.986;2023-05-27T05:47:06;9.70;99.90
77582;DHT22;66726;52.388;9.986;2023-05-27T05:49:39;9.60;99.90
77582;DHT22;66726;52.388;9.986;2023-05-27T05:52:13;9.70;99.90
77582;DHT22;66726;52.388;9.986;2023-05-27T05:54:46;9.70;99.90
77582;DHT22;66726;52.388;9.986;2023-05-27T05:57:20;9.80;99.90
77582;DHT22;66726;52.388;9.986;2023-05-27T05:59:53;9.90;99.90
77582;DHT22;66726;52.388;9.986;2023-05-27T06:02:26;10.00;99.90
77582;DHT22;66726;52.388;9.986;2023-05-27T06:05:00;10.10;99.90
77582;DHT22;66726;52.388;9.986;2023-05-27T06:07:34;10.20;99.90
77582;DHT22;66726;52.388;9.986;2023-05-27T06:10:09;10.30;99.90
77582;DHT22;66726;52.388;9.986;2023-05-27T06:12:43;10.20;99.90
77582;DHT22;66726;52.388;9.986;2023-05-27T06:15:16;10.30;99.90
77582;DHT22;66726;52.388;9.986;2023-05-27T06:17:49;10.40;99.90
77582;DHT22;66726;52.388;9.986;2023-05-27T06:20:24;10.40;99.90
77582;DHT22;66726;52.388;9.986;2023-05-27T06:22:57;10.50;99.90
77582;DHT22;66726;52.388;9.986;2023-05-27T06:25:31;10.50;99.90
77582;DHT22;66726;52.388;9.986;2023-05-27T06:28:04;10.60;99.90
77582;DHT22;66726;52.388;9.986;2023-05-27T06:30:38;10.70;99.90
77582;DHT22;66726;52.388;9.986;2023-05-27T06:33:12;10.80;99.90
77582;DHT22;66726;52.388;9.986;2023-05-27T06:35:46;10.80;99.90
77582;DHT22;66726;52.388;9.986;2023-05-27T06:38:19;10.90;99.90
77582;DHT22;66726;52.388;9.986;2023-05-27T06:40:54;11.00;99.90
77582;DHT22;66726;52.388;9.986;2023-05-27T06:43:27;11.10;99.90
77582;DHT22;66726;52.388;9.986;2023-05-27T06:46:00;11.20;99.90
77582;DHT22;66726;52.388;9.986;2023-05-27T06:48:34;11.20;99.90
77582;DHT22;66726;52.388;9.986;2023-05-27T06:51:09;11.30;99.90
77582;DHT22;66726;52.388;9.986;2023-05-27T06:53:43;11.40;99.90
77582;DHT22;66726;52.388;9.986;2023-05-27T06:56:16;11.50;99.90
77582;DHT22;66726;52.388;9.986;2023-05-27T06:58:49;11.50;99.90
77582;DHT22;66726;52.388;9.986;2023-05-27T07:01:23;11.60;99.90
77582;DHT22;66726;52.388;9.986;2023-05-27T07:03:56;11.60;99.90
77582;DHT22;66726;52.388;9.986;2023-05-27T07:06:30;11.70;99.90
77582;DHT22;66726;52.388;9.986;2023-05-27T07:09:03;11.70;99.90
77582;DHT22;66726;52.388;9.986;2023-05-27T07:11:37;11.80;99.90
77582;DHT22;66726;52.388;9.986;2023-05-27T07:14:10;11.90;99.90
77582;DHT22;66726;52.388;9.986;2023-05-27T07:16:44;12.10;99.90
77582;DHT22;66726;52.388;9.986;2023-05-27T07:19:18;12.20;99.90
77582;DHT22;66726;52.388;9.986;2023-05-27T07:21:52;12.20;99.90
77582;DHT22;66726;52.388;9.986;2023-05-27T07:24:25;12.30;99.90
77582;DHT22;66726;52.388;9.986;2023-05-27T07:26:59;12.40;99.90
77582;DHT22;66726;52.388;9.986;2023-05-27T07:29:32;12.40;99.90
77582;DHT22;66726;52.388;9.986;2023-05-27T07:32:06;12.40;99.90
77582;DHT22;66726;52.388;9.986;2023-05-27T07:34:39;12.60;99.90
77582;DHT22;66726;52.388;9.986;2023-05-27T07:37:12;12.60;99.80
77582;DHT22;66726;52.388;9.986;2023-05-27T07:39:46;12.80;99.30
77582;DHT22;66726;52.388;9.986;2023-05-27T07:42:21;12.90;99.20
77582;DHT22;66726;52.388;9.986;2023-05-27T07:44:55;12.90;99.00
77582;DHT22;66726;52.388;9.986;2023-05-27T07:47:29;13.00;98.90
77582;DHT22;66726;52.388;9.986;2023-05-27T07:50:02;13.10;98.50
77582;DHT22;66726;52.388;9.986;2023-05-27T07:52:35;13.30;97.50
77582;DHT22;66726;52.388;9.986;2023-05-27T07:55:11;13.30;97.20
77582;DHT22;66726;52.388;9.986;2023-05-27T07:57:45;13.40;97.10
77582;DHT22;66726;52.388;9.986;2023-05-27T08:00:19;13.60;96.30
77582;DHT22;66726;52.388;9.986;2023-05-27T08:02:53;13.60;96.70
77582;DHT22;66726;52.388;9.986;2023-05-27T08:05:27;13.80;96.30
77582;DHT22;66726;52.388;9.986;2023-05-27T08:08:02;13.80;95.30
77582;DHT22;66726;52.388;9.986;2023-05-27T08:10:35;13.80;95.30
77582;DHT22;66726;52.388;9.986;2023-05-27T08:13:09;13.90;95.10
77582;DHT22;66726;52.388;9.986;2023-05-27T08:15:42;14.00;96.30
77582;DHT22;66726;52.388;9.986;2023-05-27T08:18:17;14.10;95.50
77582;DHT22;66726;52.388;9.986;2023-05-27T08:20:50;14.10;96.40
77582;DHT22;66726;52.388;9.986;2023-05-27T08:23:24;14.20;95.70
77582;DHT22;66726;52.388;9.986;2023-05-27T08:25:58;14.30;94.70
77582;DHT22;66726;52.388;9.986;2023-05-27T08:28:31;14.40;94.80
77582;DHT22;66726;52.388;9.986;2023-05-27T08:31:07;14.60;94.90
77582;DHT22;66726;52.388;9.986;2023-05-27T08:33:40;14.70;94.00
77582;DHT22;66726;52.388;9.986;2023-05-27T08:36:13;14.70;94.90
77582;DHT22;66726;52.388;9.986;2023-05-27T08:38:49;14.90;94.20
77582;DHT22;66726;52.388;9.986;2023-05-27T08:41:22;15.00;93.90
77582;DHT22;66726;52.388;9.986;2023-05-27T08:43:57;14.90;92.30
77582;DHT22;66726;52.388;9.986;2023-05-27T08:46:51;15.00;92.10
77582;DHT22;66726;52.388;9.986;2023-05-27T08:49:25;15.20;92.90
77582;DHT22;66726;52.388;9.986;2023-05-27T08:52:00;15.30;91.90
77582;DHT22;66726;52.388;9.986;2023-05-27T08:54:36;15.40;92.50
77582;DHT22;66726;52.388;9.986;2023-05-27T08:57:11;15.40;93.00
77582;DHT22;66726;52.388;9.986;2023-05-27T08:59:49;15.50;93.50
77582;DHT22;66726;52.388;9.986;2023-05-27T09:02:23;15.70;92.80
77582;DHT22;66726;52.388;9.986;2023-05-27T09:04:58;15.80;91.00
77582;DHT22;66726;52.388;9.986;2023-05-27T09:07:31;15.90;91.60
77582;DHT22;66726;52.388;9.986;2023-05-27T09:10:07;15.90;92.30
77582;DHT22;66726;52.388;9.986;2023-05-27T09:12:44;16.00;91.50
77582;DHT22;66726;52.388;9.986;2023-05-27T09:15:18;16.10;91.40
77582;DHT22;66726;52.388;9.986;2023-05-27T09:17:54;16.20;90.80
77582;DHT22;66726;52.388;9.986;2023-05-27T09:20:33;16.30;90.70
77582;DHT22;66726;52.388;9.986;2023-05-27T09:23:06;16.30;88.50
77582;DHT22;66726;52.388;9.986;2023-05-27T09:25:41;16.50;90.10
77582;DHT22;66726;52.388;9.986;2023-05-27T09:28:22;16.70;90.30
77582;DHT22;66726;52.388;9.986;2023-05-27T09:31:03;16.70;91.20
77582;DHT22;66726;52.388;9.986;2023-05-27T09:33:39;16.80;89.50
77582;DHT22;66726;52.388;9.986;2023-05-27T09:36:12;16.90;87.50
77582;DHT22;66726;52.388;9.986;2023-05-27T09:38:52;17.10;84.80
77582;DHT22;66726;52.388;9.986;2023-05-27T09:41:26;17.10;85.60
77582;DHT22;66726;52.388;9.986;2023-05-27T09:44:00;17.20;85.80
77582;DHT22;66726;52.388;9.986;2023-05-27T09:46:36;17.10;83.90
77582;DHT22;66726;52.388;9.986;2023-05-27T09:49:13;17.20;84.70
77582;DHT22;66726;52.388;9.986;2023-05-27T09:51:48;17.10;82.70
77582;DHT22;66726;52.388;9.986;2023-05-27T09:54:22;17.20;83.70
77582;DHT22;66726;52.388;9.986;2023-05-27T09:56:58;17.30;85.20
77582;DHT22;66726;52.388;9.986;2023-05-27T09:59:32;17.40;87.40
77582;DHT22;66726;52.388;9.986;2023-05-27T10:02:08;17.60;84.80
77582;DHT22;66726;52.388;9.986;2023-05-27T10:04:45;17.70;80.60
77582;DHT22;66726;52.388;9.986;2023-05-27T10:07:19;17.80;83.40
77582;DHT22;66726;52.388;9.986;2023-05-27T10:10:05;17.90;80.60
77582;DHT22;66726;52.388;9.986;2023-05-27T10:12:42;18.10;80.30
77582;DHT22;66726;52.388;9.986;2023-05-27T10:15:26;18.10;79.90
77582;DHT22;66726;52.388;9.986;2023-05-27T10:18:01;18.30;80.00
77582;DHT22;66726;52.388;9.986;2023-05-27T10:20:41;18.40;78.90
77582;DHT22;66726;52.388;9.986;2023-05-27T10:23:21;18.10;77.10
77582;DHT22;66726;52.388;9.986;2023-05-27T10:26:00;18.30;78.40
77582;DHT22;66726;52.388;9.986;2023-05-27T10:28:37;18.40;79.70
77582;DHT22;66726;52.388;9.986;2023-05-27T10:31:16;18.50;79.00
77582;DHT22;66726;52.388;9.986;2023-05-27T10:33:51;18.50;79.00
77582;DHT22;66726;52.388;9.986;2023-05-27T10:36:29;18.70;77.90
77582;DHT22;66726;52.388;9.986;2023-05-27T10:39:12;19.00;78.10
77582;DHT22;66726;52.388;9.986;2023-05-27T10:41:52;19.10;75.00
77582;DHT22;66726;52.388;9.986;2023-05-27T10:44:31;19.00;76.70
77582;DHT22;66726;52.388;9.986;2023-05-27T10:47:12;18.90;72.70
77582;DHT22;66726;52.388;9.986;2023-05-27T10:49:49;19.00;74.30
77582;DHT22;66726;52.388;9.986;2023-05-27T10:52:25;19.40;72.50
77582;DHT22;66726;52.388;9.986;2023-05-27T10:55:03;19.50;74.10
77582;DHT22;66726;52.388;9.986;2023-05-27T10:57:38;19.50;72.00
77582;DHT22;66726;52.388;9.986;2023-05-27T11:00:18;19.40;72.70
77582;DHT22;66726;52.388;9.986;2023-05-27T11:02:54;19.40;71.90
77582;DHT22;66726;52.388;9.986;2023-05-27T11:05:31;19.40;74.60
77582;DHT22;66726;52.388;9.986;2023-05-27T11:08:04;19.60;74.80
77582;DHT22;66726;52.388;9.986;2023-05-27T11:10:43;19.90;72.50
77582;DHT22;66726;52.388;9.986;2023-05-27T11:13:17;19.90;73.80
77582;DHT22;66726;52.388;9.986;2023-05-27T11:15:50;20.10;73.10
77582;DHT22;66726;52.388;9.986;2023-05-27T11:18:24;20.10;70.20
77582;DHT22;66726;52.388;9.986;2023-05-27T11:21:05;20.30;67.70
77582;DHT22;66726;52.388;9.986;2023-05-27T11:23:42;20.40;69.00
77582;DHT22;66726;52.388;9.986;2023-05-27T11:26:18;20.40;66.30
77582;DHT22;66726;52.388;9.986;2023-05-27T11:28:53;20.50;70.00
77582;DHT22;66726;52.388;9.986;2023-05-27T11:31:31;20.90;66.20
77582;DHT22;66726;52.388;9.986;2023-05-27T11:34:10;21.00;65.70
77582;DHT22;66726;52.388;9.986;2023-05-27T11:36:48;21.10;66.30
77582;DHT22;66726;52.388;9.986;2023-05-27T11:39:22;21.10;70.80
77582;DHT22;66726;52.388;9.986;2023-05-27T11:41:56;21.20;67.70
77582;DHT22;66726;52.388;9.986;2023-05-27T11:44:29;21.40;65.80
77582;DHT22;66726;52.388;9.986;2023-05-27T11:47:03;21.30;64.00
77582;DHT22;66726;52.388;9.986;2023-05-27T11:49:37;21.50;64.90
77582;DHT22;66726;52.388;9.986;2023-05-27T11:52:12;21.40;63.30
77582;DHT22;66726;52.388;9.986;2023-05-27T11:54:48;21.50;63.00
77582;DHT22;66726;52.388;9.986;2023-05-27T11:57:27;21.70;62.30
77582;DHT22;66726;52.388;9.986;2023-05-27T12:00:01;21.80;61.80
77582;DHT22;66726;52.388;9.986;2023-05-27T12:02:38;21.90;59.50
77582;DHT22;66726;52.388;9.986;2023-05-27T12:05:12;21.70;58.80
77582;DHT22;66726;52.388;9.986;2023-05-27T12:08:02;21.70;59.80
77582;DHT22;66726;52.388;9.986;2023-05-27T12:10:37;21.80;58.70
77582;DHT22;66726;52.388;9.986;2023-05-27T12:13:11;22.00;58.80
77582;DHT22;66726;52.388;9.986;2023-05-27T12:15:44;22.20;61.30
77582;DHT22;66726;52.388;9.986;2023-05-27T12:18:18;22.30;56.40
77582;DHT22;66726;52.388;9.986;2023-05-27T12:20:53;22.50;55.60
77582;DHT22;66726;52.388;9.986;2023-05-27T12:23:26;22.60;55.50
77582;DHT22;66726;52.388;9.986;2023-05-27T12:26:00;22.60;54.10
77582;DHT22;66726;52.388;9.986;2023-05-27T12:28:34;22.30;53.80
77582;DHT22;66726;52.388;9.986;2023-05-27T12:31:09;22.50;58.70
77582;DHT22;66726;52.388;9.986;2023-05-27T12:33:42;22.70;57.70
77582;DHT22;66726;52.388;9.986;2023-05-27T12:36:16;22.80;53.60
77582;DHT22;66726;52.388;9.986;2023-05-27T12:38:51;22.70;52.10
77582;DHT22;66726;52.388;9.986;2023-05-27T12:41:26;22.60;54.20
77582;DHT22;66726;52.388;9.986;2023-05-27T12:43:59;22.80;55.10
77582;DHT22;66726;52.388;9.986;2023-05-27T12:46:33;23.00;54.10
77582;DHT22;66726;52.388;9.986;2023-05-27T12:49:07;23.00;50.30
77582;DHT22;66726;52.388;9.986;2023-05-27T12:51:40;23.00;50.50
77582;DHT22;66726;52.388;9.986;2023-05-27T12:54:14;23.00;52.00
77582;DHT22;66726;52.388;9.986;2023-05-27T12:56:48;22.80;52.00
77582;DHT22;66726;52.388;9.986;2023-05-27T12:59:22;22.70;54.10
77582;DHT22;66726;52.388;9.986;2023-05-27T13:01:56;22.80;52.20
77582;DHT22;66726;52.388;9.986;2023-05-27T13:04:30;22.90;53.90
77582;DHT22;66726;52.388;9.986;2023-05-27T13:07:03;23.10;50.90
77582;DHT22;66726;52.388;9.986;2023-05-27T13:09:41;23.20;51.80
77582;DHT22;66726;52.388;9.986;2023-05-27T13:12:15;23.20;50.10
77582;DHT22;66726;52.388;9.986;2023-05-27T13:14:49;23.40;52.10
77582;DHT22;66726;52.388;9.986;2023-05-27T13:17:23;23.30;52.40
77582;DHT22;66726;52.388;9.986;2023-05-27T13:19:57;23.40;51.10
77582;DHT22;66726;52.388;9.986;2023-05-27T13:22:33;23.30;51.30
77582;DHT22;66726;52.388;9.986;2023-05-27T13:25:08;23.40;49.30
77582;DHT22;66726;52.388;9.986;2023-05-27T13:27:44;23.30;50.60
77582;DHT22;66726;52.388;9.986;2023-05-27T13:30:17;22.80;48.90
77582;DHT22;66726;52.388;9.986;2023-05-27T13:32:52;23.00;49.90
77582;DHT22;66726;52.388;9.986;2023-05-27T13:35:27;23.20;51.50
77582;DHT22;66726;52.388;9.986;2023-05-27T13:38:01;23.30;50.00
77582;DHT22;66726;52.388;9.986;2023-05-27T13:40:37;23.10;49.10
77582;DHT22;66726;52.388;9.986;2023-05-27T13:43:11;23.10;49.30
77582;DHT22;66726;52.388;9.986;2023-05-27T13:45:44;23.50;49.40
77582;DHT22;66726;52.388;9.986;2023-05-27T13:48:18;23.50;48.20
77582;DHT22;66726;52.388;9.986;2023-05-27T13:50:52;23.80;49.40
77582;DHT22;66726;52.388;9.986;2023-05-27T13:53:25;24.10;48.80
77582;DHT22;66726;52.388;9.986;2023-05-27T13:55:59;24.20;48.30
77582;DHT22;66726;52.388;9.986;2023-05-27T13:58:33;24.10;48.20
77582;DHT22;66726;52.388;9.986;2023-05-27T14:01:07;24.20;45.60
77582;DHT22;66726;52.388;9.986;2023-05-27T14:03:41;24.30;48.50
77582;DHT22;66726;52.388;9.986;2023-05-27T14:06:15;24.30;44.90
77582;DHT22;66726;52.388;9.986;2023-05-27T14:08:49;24.40;45.20
77582;DHT22;66726;52.388;9.986;2023-05-27T14:11:24;24.50;47.50
77582;DHT22;66726;52.388;9.986;2023-05-27T14:13:57;24.60;46.40
77582;DHT22;66726;52.388;9.986;2023-05-27T14:16:31;24.50;44.70
77582;DHT22;66726;52.388;9.986;2023-05-27T14:19:04;24.60;46.30
77582;DHT22;66726;52.388;9.986;2023-05-27T14:21:38;24.60;45.40
77582;DHT22;66726;52.388;9.986;2023-05-27T14:24:14;24.70;45.20
77582;DHT22;66726;52.388;9.986;2023-05-27T14:26:48;24.30;43.80
77582;DHT22;66726;52.388;9.986;2023-05-27T14:29:22;24.40;43.60
77582;DHT22;66726;52.388;9.986;2023-05-27T14:31:55;24.50;46.70
77582;DHT22;66726;52.388;9.986;2023-05-27T14:34:28;24.70;45.10
77582;DHT22;66726;52.388;9.986;2023-05-27T14:37:02;24.70;44.80
77582;DHT22;66726;52.388;9.986;2023-05-27T14:39:38;24.80;43.60
77582;DHT22;66726;52.388;9.986;2023-05-27T14:42:12;24.90;44.70
77582;DHT22;66726;52.388;9.986;2023-05-27T14:44:46;25.00;45.30
77582;DHT22;66726;52.388;9.986;2023-05-27T14:47:19;24.60;41.60
77582;DHT22;66726;52.388;9.986;2023-05-27T14:49:53;24.60;43.30
77582;DHT22;66726;52.388;9.986;2023-05-27T14:52:26;24.60;42.10
77582;DHT22;66726;52.388;9.986;2023-05-27T14:55:00;24.20;42.40
77582;DHT22;66726;52.388;9.986;2023-05-27T14:57:34;24.20;43.00
77582;DHT22;66726;52.388;9.986;2023-05-27T15:00:09;24.50;44.60
77582;DHT22;66726;52.388;9.986;2023-05-27T15:02:42;24.70;43.50
77582;DHT22;66726;52.388;9.986;2023-05-27T15:05:16;24.70;44.40
77582;DHT22;66726;52.388;9.986;2023-05-27T15:07:50;24.80;43.60
77582;DHT22;66726;52.388;9.986;2023-05-27T15:10:23;24.90;42.30
77582;DHT22;66726;52.388;9.986;2023-05-27T15:12:57;25.10;44.60
77582;DHT22;66726;52.388;9.986;2023-05-27T15:15:30;25.30;42.90
77582;DHT22;66726;52.388;9.986;2023-05-27T15:18:05;25.20;43.00
77582;DHT22;66726;52.388;9.986;2023-05-27T15:20:39;25.30;42.30
77582;DHT22;66726;52.388;9.986;2023-05-27T15:23:13;25.00;41.30
77582;DHT22;66726;52.388;9.986;2023-05-27T15:25:46;24.90;40.40
77582;DHT22;66726;52.388;9.986;2023-05-27T15:28:20;25.00;45.30
77582;DHT22;66726;52.388;9.986;2023-05-27T15:30:55;25.10;43.10
77582;DHT22;66726;52.388;9.986;2023-05-27T15:33:28;24.90;43.60
77582;DHT22;66726;52.388;9.986;2023-05-27T15:36:03;25.00;43.20
77582;DHT22;66726;52.388;9.986;2023-05-27T15:38:36;24.90;42.70
77582;DHT22;66726;52.388;9.986;2023-05-27T15:41:10;24.90;44.70
77582;DHT22;66726;52.388;9.986;2023-05-27T15:43:43;25.10;45.30
77582;DHT22;66726;52.388;9.986;2023-05-27T15:46:17;25.10;43.70
77582;DHT22;66726;52.388;9.986;2023-05-27T15:48:53;25.30;43.20
77582;DHT22;66726;52.388;9.986;2023-05-27T15:51:26;25.20;43.60
77582;DHT22;66726;52.388;9.986;2023-05-27T15:54:00;25.10;44.00
77582;DHT22;66726;52.388;9.986;2023-05-27T15:56:34;25.00;43.20
77582;DHT22;66726;52.388;9.986;2023-05-27T15:59:07;25.10;45.70
77582;DHT22;66726;52.388;9.986;2023-05-27T16:01:41;25.00;43.10
77582;DHT22;66726;52.388;9.986;2023-05-27T16:04:14;24.90;42.90
77582;DHT22;66726;52.388;9.986;2023-05-27T16:06:48;24.70;42.90
77582;DHT22;66726;52.388;9.986;2023-05-27T16:09:22;24.70;43.80
77582;DHT22;66726;52.388;9.986;2023-05-27T16:11:56;24.70;43.80
77582;DHT22;66726;52.388;9.986;2023-05-27T16:14:32;24.80;44.90
77582;DHT22;66726;52.388;9.986;2023-05-27T16:17:07;24.90;44.80
77582;DHT22;66726;52.388;9.986;2023-05-27T16:19:40;25.00;44.50
77582;DHT22;66726;52.388;9.986;2023-05-27T16:22:14;25.00;45.00
77582;DHT22;66726;52.388;9.986;2023-05-27T16:24:47;25.10;44.50